createdAt,value
2019-04-07T00:01:06.677Z,4.42
2019-04-07T00:03:37.309Z,4.31
2019-04-07T00:06:07.489Z,4.27
2019-04-07T00:08:37.897Z,4.19
2019-04-07T00:11:07.537Z,4.14
2019-04-07T00:13:37.257Z,4.06
2019-04-07T00:16:07.215Z,4.00
2019-04-07T00:18:37.412Z,3.95
2019-04-07T00:21:07.177Z,3.88
2019-04-07T00:23:36.984Z,3.86
2019-04-07T00:26:06.785Z,3.81
2019-04-07T00:28:36.788Z,3.79
2019-04-07T00:31:06.609Z,3.74
2019-04-07T00:33:36.585Z,3.69
2019-04-07T00:36:06.345Z,3.62
2019-04-07T00:38:36.325Z,3.60
2019-04-07T00:41:06.797Z,3.58
2019-04-07T00:43:36.846Z,3.58
2019-04-07T00:46:06.548Z,3.50
2019-04-07T00:48:36.478Z,3.45
2019-04-07T00:51:07.807Z,3.36
2019-04-07T00:53:38.846Z,3.34
2019-04-07T00:56:09.388Z,3.38
2019-04-07T00:58:39.159Z,3.36
2019-04-07T01:01:11.616Z,3.37
2019-04-07T01:03:43.018Z,3.33
2019-04-07T01:06:12.972Z,3.28
2019-04-07T01:08:42.905Z,3.15
2019-04-07T01:11:13.452Z,3.01
2019-04-07T01:13:43.224Z,2.94
2019-04-07T01:16:13.287Z,2.88
2019-04-07T01:18:43.705Z,2.85
2019-04-07T01:21:13.819Z,2.76
2019-04-07T01:23:44.645Z,2.75
2019-04-07T01:26:14.425Z,2.73
2019-04-07T01:28:44.154Z,2.70
2019-04-07T01:31:14.400Z,2.68
2019-04-07T01:33:44.354Z,2.68
2019-04-07T01:36:14.047Z,2.63
2019-04-07T01:38:44.341Z,2.55
2019-04-07T01:44:02.622Z,2.44
2019-04-07T01:46:33.986Z,2.43
2019-04-07T01:49:11.743Z,2.36
2019-04-07T01:51:49.662Z,2.25
2019-04-07T01:54:33.525Z,2.23
2019-04-07T01:57:17.006Z,2.15
2019-04-07T02:00:03.416Z,2.08
2019-04-07T02:02:37.266Z,1.83
2019-04-07T02:05:12.304Z,1.76
2019-04-07T02:07:55.405Z,1.18
2019-04-07T02:10:27.441Z,1.70
2019-04-07T02:13:05.943Z,1.61
2019-04-07T02:15:40.581Z,1.64
2019-04-07T02:18:12.374Z,1.66
2019-04-07T02:21:04.338Z,1.67
2019-04-07T02:23:50.957Z,1.58
2019-04-07T02:26:37.788Z,1.63
2019-04-07T02:29:19.232Z,1.74
2019-04-07T02:32:06.189Z,1.79
2019-04-07T02:34:53.767Z,1.60
2019-04-07T02:37:40.971Z,1.55
2019-04-07T02:40:12.592Z,1.54
2019-04-07T02:42:47.027Z,1.44
2019-04-07T02:45:28.332Z,1.43
2019-04-07T02:48:01.058Z,1.48
2019-04-07T02:50:33.350Z,1.49
2019-04-07T02:53:07.889Z,1.52
2019-04-07T02:55:55.501Z,1.53
2019-04-07T02:58:38.917Z,1.55
2019-04-07T03:01:11.469Z,1.55
2019-04-07T03:03:42.873Z,1.53
2019-04-07T03:06:32.478Z,1.51
2019-04-07T03:08:59.436Z,1.51
2019-04-07T03:11:46.584Z,1.52
2019-04-07T03:14:18.303Z,1.39
2019-04-07T03:16:55.828Z,1.31
2019-04-07T03:19:46.735Z,1.31
2019-04-07T03:22:27.838Z,1.25
2019-04-07T03:25:05.593Z,1.13
2019-04-07T03:27:44.414Z,0.89
2019-04-07T03:30:21.810Z,0.76
2019-04-07T03:32:55.378Z,0.71
2019-04-07T03:35:29.066Z,0.73
2019-04-07T03:38:00.824Z,0.75
2019-04-07T03:40:49.616Z,0.79
2019-04-07T03:43:22.017Z,0.74
2019-04-07T03:46:00.299Z,0.87
2019-04-07T03:48:38.094Z,0.95
2019-04-07T03:51:15.204Z,1.00
2019-04-07T03:53:47.433Z,0.98
2019-04-07T03:56:30.820Z,1.03
2019-04-07T03:59:18.343Z,0.98
2019-04-07T04:01:52.398Z,1.00
2019-04-07T04:04:37.257Z,0.87
2019-04-07T04:07:32.350Z,0.75
2019-04-07T04:10:17.352Z,0.66
2019-04-07T04:12:58.652Z,0.47
2019-04-07T04:15:31.186Z,0.37
2019-04-07T04:18:01.272Z,0.42
2019-04-07T04:20:31.074Z,0.34
2019-04-07T04:23:00.886Z,0.35
2019-04-07T04:25:30.626Z,0.31
2019-04-07T04:28:01.226Z,0.33
2019-04-07T04:30:32.025Z,0.24
2019-04-07T04:33:03.905Z,0.17
2019-04-07T04:35:34.007Z,0.10
2019-04-07T04:38:03.965Z,0.11
2019-04-07T04:40:33.615Z,0.25
2019-04-07T04:43:04.649Z,0.43
2019-04-07T04:45:34.626Z,0.61
2019-04-07T04:48:04.775Z,0.67
2019-04-07T04:50:35.376Z,0.79
2019-04-07T04:53:06.184Z,0.92
2019-04-07T04:55:37.275Z,1.04
2019-04-07T04:58:08.767Z,1.18
2019-04-07T05:00:40.434Z,1.30
2019-04-07T05:03:11.234Z,1.41
2019-04-07T05:05:41.386Z,1.51
2019-04-07T05:08:11.468Z,1.62
2019-04-07T05:10:41.658Z,1.72
2019-04-07T05:13:11.526Z,1.85
2019-04-07T05:15:41.124Z,1.92
2019-04-07T05:18:10.891Z,1.77
2019-04-07T05:20:40.871Z,1.73
2019-04-07T05:23:10.985Z,1.80
2019-04-07T05:25:41.556Z,1.75
2019-04-07T05:28:11.343Z,1.84
2019-04-07T05:30:41.449Z,1.68
2019-04-07T05:33:11.324Z,1.66
2019-04-07T05:35:41.282Z,2.20
2019-04-07T05:38:11.328Z,2.99
2019-04-07T05:40:41.183Z,3.65
2019-04-07T05:43:11.880Z,4.08
2019-04-07T05:45:42.011Z,4.30
2019-04-07T05:48:12.203Z,4.39
2019-04-07T05:50:43.017Z,4.53
2019-04-07T05:53:14.833Z,4.61
2019-04-07T05:55:46.025Z,4.72
2019-04-07T05:58:15.913Z,4.91
2019-04-07T06:00:46.989Z,5.00
2019-04-07T06:03:18.719Z,4.96
2019-04-07T06:05:51.184Z,4.84
2019-04-07T06:08:27.741Z,4.80
2019-04-07T06:10:56.559Z,4.72
2019-04-07T06:13:23.683Z,4.64
2019-04-07T06:15:54.066Z,4.61
2019-04-07T06:18:23.980Z,4.33
2019-04-07T06:20:53.780Z,4.19
2019-04-07T06:23:28.573Z,4.14
2019-04-07T06:25:59.463Z,3.98
2019-04-07T06:28:29.294Z,3.68
2019-04-07T06:31:00.247Z,3.59
2019-04-07T06:33:32.047Z,3.52
2019-04-07T06:36:01.941Z,3.24
2019-04-07T06:38:35.901Z,2.94
2019-04-07T06:41:04.817Z,3.28
2019-04-07T06:43:36.637Z,3.57
2019-04-07T06:46:10.920Z,3.75
2019-04-07T06:48:58.482Z,3.69
2019-04-07T06:51:48.093Z,3.96
2019-04-07T06:54:36.261Z,4.28
2019-04-07T06:57:08.446Z,4.57
2019-04-07T06:59:49.060Z,4.93
2019-04-07T07:02:30.215Z,4.99
2019-04-07T07:05:05.195Z,5.63
2019-04-07T07:07:48.173Z,6.22
2019-04-07T07:10:40.067Z,6.50
2019-04-07T07:13:29.243Z,7.05
2019-04-07T07:16:10.428Z,7.57
2019-04-07T07:18:42.542Z,8.03
2019-04-07T07:21:33.975Z,8.39
2019-04-07T07:24:02.363Z,8.62
2019-04-07T07:26:35.271Z,8.81
2019-04-07T07:29:06.424Z,8.79
2019-04-07T07:31:35.941Z,9.00
2019-04-07T07:34:09.362Z,8.66
2019-04-07T07:36:38.226Z,9.58
2019-04-07T07:39:11.366Z,9.01
2019-04-07T07:41:40.952Z,9.21
2019-04-07T07:44:10.800Z,9.21
2019-04-07T07:46:43.186Z,9.45
2019-04-07T07:49:13.629Z,9.67
2019-04-07T07:51:46.945Z,9.82
2019-04-07T07:54:18.311Z,9.88
2019-04-07T07:56:50.214Z,10.19
2019-04-07T07:59:20.097Z,10.37
2019-04-07T08:01:51.656Z,10.54
2019-04-07T08:04:24.915Z,10.83
2019-04-07T08:06:54.475Z,11.39
2019-04-07T08:09:26.005Z,11.69
2019-04-07T08:11:55.841Z,11.96
2019-04-07T08:14:26.041Z,12.12
2019-04-07T08:17:00.169Z,11.99
2019-04-07T08:19:30.859Z,11.81
2019-04-07T08:22:03.187Z,11.54
2019-04-07T08:24:35.158Z,11.42
2019-04-07T08:27:05.180Z,11.53
2019-04-07T08:29:37.100Z,11.76
2019-04-07T08:32:06.664Z,11.81
2019-04-07T08:34:37.224Z,11.57
2019-04-07T08:37:08.415Z,12.06
2019-04-07T08:39:38.738Z,12.73
2019-04-07T08:42:11.806Z,13.11
2019-04-07T08:44:40.826Z,13.53
2019-04-07T08:47:18.854Z,13.81
2019-04-07T08:49:47.084Z,13.54
2019-04-07T08:52:17.485Z,13.54
2019-04-07T08:54:50.330Z,13.33
2019-04-07T08:57:19.711Z,13.71
2019-04-07T08:59:52.772Z,13.84
2019-04-07T09:02:26.862Z,13.90
2019-04-07T09:04:55.889Z,14.12
2019-04-07T09:07:28.720Z,14.21
2019-04-07T09:09:58.727Z,14.11
2019-04-07T09:12:30.970Z,13.90
2019-04-07T09:15:03.158Z,14.31
2019-04-07T09:17:44.595Z,14.53
2019-04-07T09:20:14.675Z,14.63
2019-04-07T09:22:51.559Z,14.37
2019-04-07T09:25:27.354Z,13.93
2019-04-07T09:28:15.344Z,13.72
2019-04-07T09:30:48.290Z,13.67
2019-04-07T09:33:21.590Z,13.72
2019-04-07T09:36:00.614Z,13.76
2019-04-07T09:38:33.602Z,13.68
2019-04-07T09:41:09.444Z,13.36
2019-04-07T09:43:47.362Z,13.07
2019-04-07T09:46:19.113Z,12.66
2019-04-07T09:48:59.986Z,12.84
2019-04-07T09:51:32.051Z,13.05
2019-04-07T09:54:07.158Z,13.17
2019-04-07T09:56:56.156Z,13.29
2019-04-07T09:59:40.025Z,13.37
2019-04-07T10:02:32.036Z,13.21
2019-04-07T10:05:19.012Z,13.34
2019-04-07T10:08:03.336Z,13.49
2019-04-07T10:10:53.016Z,13.37
2019-04-07T10:13:26.444Z,13.67
2019-04-07T10:15:58.332Z,13.84
2019-04-07T10:18:42.925Z,13.90
2019-04-07T10:21:18.351Z,13.92
2019-04-07T10:23:51.575Z,14.23
2019-04-07T10:26:33.744Z,14.37
2019-04-07T10:29:21.951Z,14.40
2019-04-07T10:32:08.843Z,14.57
2019-04-07T10:34:40.790Z,14.60
2019-04-07T10:37:25.502Z,14.21
2019-04-07T10:40:19.538Z,13.95
2019-04-07T10:42:47.310Z,13.78
2019-04-07T10:45:22.854Z,13.68
2019-04-07T10:47:55.185Z,13.71
2019-04-07T10:50:36.762Z,13.67
2019-04-07T10:53:22.779Z,13.83
2019-04-07T10:55:57.457Z,13.83
2019-04-07T10:58:46.108Z,13.86
2019-04-07T11:01:17.765Z,13.72
2019-04-07T11:03:59.463Z,13.57
2019-04-07T11:06:47.119Z,13.53
2019-04-07T11:09:37.734Z,13.55
2019-04-07T11:12:27.625Z,13.69
2019-04-07T11:15:20.313Z,13.28
2019-04-07T11:18:04.202Z,13.53
2019-04-07T11:20:41.328Z,13.82
2019-04-07T11:23:13.053Z,13.90
2019-04-07T11:25:46.118Z,14.10
2019-04-07T11:28:28.844Z,14.03
2019-04-07T11:31:00.542Z,13.82
2019-04-07T11:33:32.879Z,13.97
2019-04-07T11:36:08.430Z,13.92
2019-04-07T11:38:54.898Z,13.92
2019-04-07T11:41:36.059Z,13.60
2019-04-07T11:44:22.885Z,13.36
2019-04-07T11:47:02.084Z,13.49
2019-04-07T11:49:34.557Z,13.64
2019-04-07T11:52:18.456Z,13.74
2019-04-07T11:55:08.548Z,13.88
2019-04-07T11:58:02.925Z,13.86
2019-04-07T12:00:39.808Z,13.78
2019-04-07T12:03:26.877Z,13.61
2019-04-07T12:05:57.068Z,13.46
2019-04-07T12:08:44.513Z,13.32
2019-04-07T12:11:19.952Z,12.41
2019-04-07T12:14:00.852Z,13.18
2019-04-07T12:16:33.737Z,13.02
2019-04-07T12:19:20.379Z,13.04
2019-04-07T12:22:10.418Z,12.97
2019-04-07T12:24:44.464Z,12.94
2019-04-07T12:27:32.001Z,12.88
2019-04-07T12:30:21.457Z,12.75
2019-04-07T12:32:55.888Z,12.53
2019-04-07T12:35:37.719Z,12.63
2019-04-07T12:38:26.426Z,12.73
2019-04-07T12:41:11.483Z,12.72
2019-04-07T12:43:37.769Z,12.73
2019-04-07T12:46:25.425Z,12.64
2019-04-07T12:49:12.210Z,12.74
2019-04-07T12:51:46.081Z,12.79
2019-04-07T12:54:23.731Z,12.85
2019-04-07T12:57:12.186Z,12.88
2019-04-07T12:59:54.961Z,12.92
2019-04-07T13:02:34.983Z,12.90
2019-04-07T13:05:19.655Z,13.01
2019-04-07T13:08:01.604Z,13.10
2019-04-07T13:10:51.231Z,13.28
2019-04-07T13:13:29.555Z,13.45
2019-04-07T13:16:09.176Z,13.59
2019-04-07T13:18:42.463Z,13.64
2019-04-07T13:21:25.059Z,13.70
2019-04-07T13:24:12.695Z,13.59
2019-04-07T13:26:47.326Z,13.62
2019-04-07T13:29:35.894Z,13.54
2019-04-07T13:32:07.665Z,13.73
2019-04-07T13:34:55.418Z,13.89
2019-04-07T13:37:26.602Z,13.96
2019-04-07T13:40:05.020Z,13.93
2019-04-07T13:42:42.832Z,14.05
2019-04-07T13:45:16.856Z,14.05
2019-04-07T13:47:49.497Z,14.07
2019-04-07T13:50:33.311Z,14.01
2019-04-07T13:53:25.807Z,14.03
2019-04-07T13:56:05.112Z,13.88
2019-04-07T13:58:52.843Z,13.71
2019-04-07T14:01:24.021Z,13.71
2019-04-07T14:04:12.086Z,13.74
2019-04-07T14:06:45.888Z,13.81
2019-04-07T14:09:21.111Z,13.69
2019-04-07T14:12:04.207Z,13.62
2019-04-07T14:14:35.998Z,13.54
2019-04-07T14:17:24.758Z,13.48
2019-04-07T14:19:59.488Z,13.46
2019-04-07T14:22:31.090Z,13.35
2019-04-07T14:25:05.338Z,13.41
2019-04-07T14:27:42.693Z,13.37
2019-04-07T14:30:14.560Z,12.98
2019-04-07T14:32:52.065Z,13.38
2019-04-07T14:35:26.932Z,13.19
2019-04-07T14:38:15.852Z,13.10
2019-04-07T14:41:01.105Z,13.14
2019-04-07T14:43:34.438Z,13.05
2019-04-07T14:46:23.900Z,13.11
2019-04-07T14:48:55.251Z,13.16
2019-04-07T14:51:42.828Z,13.11
2019-04-07T14:54:29.246Z,13.06
2019-04-07T14:57:13.263Z,13.05
2019-04-07T14:59:45.509Z,13.02
2019-04-07T15:02:18.295Z,12.92
2019-04-07T15:04:50.958Z,12.92
2019-04-07T15:07:40.826Z,12.91
2019-04-07T15:10:17.975Z,12.86
2019-04-07T15:13:01.754Z,12.80
2019-04-07T15:15:32.524Z,12.78
2019-04-07T15:18:05.808Z,12.69
2019-04-07T15:20:42.698Z,12.63
2019-04-07T15:23:12.187Z,12.48
2019-04-07T15:25:46.026Z,12.34
2019-04-07T15:28:17.405Z,12.31
2019-04-07T15:30:50.433Z,12.19
2019-04-07T15:33:21.153Z,12.05
2019-04-07T15:35:52.432Z,11.93
2019-04-07T15:38:26.718Z,11.88
2019-04-07T15:41:07.619Z,11.78
2019-04-07T15:43:40.074Z,11.64
2019-04-07T15:46:10.595Z,11.54
2019-04-07T15:48:48.552Z,11.51
2019-04-07T15:51:22.999Z,11.56
2019-04-07T15:53:58.623Z,11.56
2019-04-07T15:56:30.400Z,11.46
2019-04-07T15:59:02.011Z,11.40
2019-04-07T16:01:33.722Z,11.28
2019-04-07T16:04:08.634Z,11.25
2019-04-07T16:06:39.501Z,11.24
2019-04-07T16:09:28.396Z,11.23
2019-04-07T16:11:44.615Z,11.21
2019-04-07T16:14:18.083Z,11.12
2019-04-07T16:16:47.816Z,11.08
2019-04-07T16:19:24.920Z,10.90
2019-04-07T16:21:49.404Z,10.82
2019-04-07T16:24:22.710Z,10.72
2019-04-07T16:26:53.501Z,10.68
2019-04-07T16:29:25.589Z,10.55
2019-04-07T16:31:58.686Z,10.52
2019-04-07T16:34:29.137Z,10.51
2019-04-07T16:37:07.315Z,10.46
2019-04-07T16:39:38.772Z,10.43
2019-04-07T16:42:11.029Z,10.40
2019-04-07T16:44:43.882Z,10.35
2019-04-07T16:47:21.871Z,10.31
2019-04-07T16:49:48.839Z,10.25
2019-04-07T16:52:19.002Z,10.23
2019-04-07T16:54:49.142Z,10.18
2019-04-07T16:57:18.983Z,10.07
2019-04-07T16:59:49.222Z,9.96
2019-04-07T17:02:22.058Z,9.92
2019-04-07T17:04:52.667Z,9.92
2019-04-07T17:07:23.338Z,9.91
2019-04-07T17:09:56.433Z,9.90
2019-04-07T17:12:26.970Z,9.89
2019-04-07T17:14:57.582Z,9.86
2019-04-07T17:17:28.311Z,9.86
2019-04-07T17:19:59.601Z,9.81
2019-04-07T17:22:31.492Z,9.76
2019-04-07T17:25:05.020Z,9.32
2019-04-07T17:27:33.350Z,9.66
2019-04-07T17:30:03.669Z,9.60
2019-04-07T17:32:35.744Z,9.57
2019-04-07T17:35:07.343Z,9.61
2019-04-07T17:37:37.448Z,9.62
2019-04-07T17:40:13.058Z,9.54
2019-04-07T17:42:42.150Z,9.42
2019-04-07T17:45:30.849Z,9.35
2019-04-07T17:48:19.149Z,9.26
2019-04-07T17:51:09.723Z,9.17
2019-04-07T17:53:50.620Z,9.15
2019-04-07T17:56:24.295Z,9.22
2019-04-07T17:59:00.711Z,9.14
2019-04-07T18:01:41.029Z,9.17
2019-04-07T18:04:18.900Z,9.17
2019-04-07T18:06:57.182Z,9.24
2019-04-07T18:09:28.741Z,9.14
2019-04-07T18:12:18.410Z,9.05
2019-04-07T18:15:04.367Z,8.94
2019-04-07T18:17:48.897Z,8.86
2019-04-07T18:20:40.478Z,8.84
2019-04-07T18:23:34.681Z,8.83
2019-04-07T18:26:10.416Z,8.83
2019-04-07T18:28:45.347Z,8.82
2019-04-07T18:31:37.876Z,8.82
2019-04-07T18:34:27.135Z,8.87
2019-04-07T18:37:13.040Z,8.91
2019-04-07T18:39:52.393Z,8.79
2019-04-07T18:42:21.987Z,8.65
2019-04-07T18:44:57.612Z,8.59
2019-04-07T18:47:32.525Z,8.50
2019-04-07T18:50:21.987Z,8.43
2019-04-07T18:53:10.782Z,8.37
2019-04-07T18:55:42.251Z,8.35
2019-04-07T18:58:26.747Z,8.29
2019-04-07T19:01:13.713Z,8.30
2019-04-07T19:03:51.173Z,8.32
2019-04-07T19:06:30.065Z,8.33
2019-04-07T19:09:12.437Z,8.34
2019-04-07T19:11:50.187Z,8.29
2019-04-07T19:14:40.258Z,8.26
2019-04-07T19:17:01.024Z,8.21
2019-04-07T19:19:35.507Z,8.15
2019-04-07T19:22:26.748Z,8.12
2019-04-07T19:25:11.122Z,8.18
2019-04-07T19:27:54.784Z,8.16
2019-04-07T19:30:43.902Z,8.13
2019-04-07T19:33:19.233Z,8.09
2019-04-07T19:36:10.289Z,8.10
2019-04-07T19:38:52.193Z,8.16
2019-04-07T19:41:31.474Z,7.44
2019-04-07T19:44:07.759Z,8.23
2019-04-07T19:46:39.221Z,8.14
2019-04-07T19:49:22.558Z,8.16
2019-04-07T19:52:09.758Z,8.17
2019-04-07T19:54:49.334Z,7.74
2019-04-07T19:57:28.207Z,8.04
2019-04-07T20:00:02.816Z,8.01
2019-04-07T20:02:45.118Z,8.01
2019-04-07T20:05:21.121Z,7.99
2019-04-07T20:07:56.152Z,7.97
2019-04-07T20:10:28.233Z,7.96
2019-04-07T20:13:09.163Z,7.94
2019-04-07T20:15:58.779Z,7.92
2019-04-07T20:18:36.164Z,7.90
2019-04-07T20:21:13.149Z,7.85
2019-04-07T20:24:04.583Z,7.83
2019-04-07T20:26:46.025Z,7.83
2019-04-07T20:29:20.125Z,7.81
2019-04-07T20:31:57.514Z,7.79
2019-04-07T20:34:29.642Z,7.35
2019-04-07T20:37:13.247Z,7.76
2019-04-07T20:39:58.849Z,7.81
2019-04-07T20:42:38.857Z,7.83
2019-04-07T20:45:18.732Z,7.85
2019-04-07T20:48:05.105Z,7.76
2019-04-07T20:50:46.073Z,7.79
2019-04-07T20:53:29.836Z,7.72
2019-04-07T20:56:00.442Z,7.67
2019-04-07T20:58:47.361Z,7.64
2019-04-07T21:01:17.330Z,7.65
2019-04-07T21:03:49.376Z,7.63
2019-04-07T21:06:32.108Z,7.59
2019-04-07T21:09:09.927Z,7.50
2019-04-07T21:11:58.785Z,7.40
2019-04-07T21:14:47.315Z,7.36
2019-04-07T21:17:21.833Z,7.33
2019-04-07T21:20:11.722Z,7.29
2019-04-07T21:22:56.141Z,7.24
2019-04-07T21:25:41.254Z,7.21
2019-04-07T21:28:16.747Z,7.07
2019-04-07T21:30:50.399Z,7.01
2019-04-07T21:33:28.215Z,6.96
2019-04-07T21:36:06.454Z,7.05
2019-04-07T21:38:54.840Z,7.00
2019-04-07T21:41:31.233Z,6.98
2019-04-07T21:44:18.886Z,6.90
2019-04-07T21:47:06.477Z,6.84
2019-04-07T21:49:46.948Z,6.81
2019-04-07T21:52:21.724Z,6.73
2019-04-07T21:54:51.672Z,6.70
2019-04-07T21:57:24.469Z,6.63
2019-04-07T21:59:59.908Z,6.57
2019-04-07T22:02:33.444Z,6.56
2019-04-07T22:05:04.902Z,6.11
2019-04-07T22:07:48.619Z,6.57
2019-04-07T22:10:20.470Z,6.57
2019-04-07T22:12:50.300Z,6.59
2019-04-07T22:15:20.060Z,6.60
2019-04-07T22:17:50.067Z,6.57
2019-04-07T22:20:20.621Z,6.54
2019-04-07T22:22:54.349Z,6.55
2019-04-07T22:25:33.517Z,6.56
2019-04-07T22:28:03.441Z,6.57
2019-04-07T22:30:40.140Z,6.59
2019-04-07T22:33:10.433Z,6.65
2019-04-07T22:35:42.736Z,6.66
2019-04-07T22:38:12.269Z,6.59
2019-04-07T22:40:41.765Z,6.57
2019-04-07T22:43:16.721Z,6.53
2019-04-07T22:45:55.081Z,6.51
2019-04-07T22:48:22.850Z,6.51
2019-04-07T22:50:51.835Z,6.45
2019-04-07T22:53:27.431Z,6.48
2019-04-07T22:55:56.903Z,6.49
2019-04-07T22:58:27.820Z,6.55
2019-04-07T23:00:59.306Z,6.52
2019-04-07T23:03:32.237Z,6.48
2019-04-07T23:06:05.185Z,6.48
2019-04-07T23:08:36.990Z,6.47
2019-04-07T23:11:09.264Z,6.47
2019-04-07T23:13:39.726Z,6.45
2019-04-07T23:16:14.936Z,6.42
2019-04-07T23:18:44.497Z,6.44
2019-04-07T23:21:14.966Z,6.37
2019-04-07T23:23:44.928Z,6.30
2019-04-07T23:26:14.683Z,6.23
2019-04-07T23:28:44.500Z,6.21
2019-04-07T23:31:14.183Z,6.14
2019-04-07T23:33:44.084Z,6.16
2019-04-07T23:36:15.748Z,6.13
2019-04-07T23:38:45.386Z,5.97
2019-04-07T23:41:16.804Z,5.92
2019-04-07T23:43:46.592Z,5.82
2019-04-07T23:46:23.158Z,5.67
2019-04-07T23:48:51.849Z,5.60
2019-04-07T23:51:21.752Z,5.64
2019-04-07T23:54:11.799Z,5.67
2019-04-07T23:56:44.665Z,5.67
2019-04-07T23:59:14.865Z,5.72
